createdAt,value
2023-01-12T00:02:47.110Z,100570.28
2023-01-12T00:05:50.080Z,100575.47
2023-01-12T00:08:58.380Z,100572.81
2023-01-12T00:12:03.233Z,100574.63
2023-01-12T00:15:09.946Z,100582.59
2023-01-12T00:18:16.361Z,100575.47
2023-01-12T00:21:20.000Z,100580.47
2023-01-12T00:24:25.546Z,100584.19
2023-01-12T00:27:28.720Z,100592.19
2023-01-12T00:30:33.318Z,100602.69
2023-01-12T00:33:42.174Z,100594.75
2023-01-12T00:36:46.703Z,100579.59
2023-01-12T00:40:01.952Z,100579.59
2023-01-12T00:43:23.405Z,100574.56
2023-01-12T00:46:33.235Z,100562.88
2023-01-12T00:49:37.592Z,100555.47
2023-01-12T00:52:42.223Z,100558.78
2023-01-12T00:55:47.748Z,100551.88
2023-01-12T00:58:50.789Z,100541.53
2023-01-12T01:01:56.395Z,100547.25
2023-01-12T01:05:00.585Z,100540.38
2023-01-12T01:08:05.790Z,100542.22
2023-01-12T01:11:17.109Z,100541.38
2023-01-12T01:14:20.275Z,100540.22
2023-01-12T01:17:24.976Z,100540.72
2023-01-12T01:20:30.047Z,100533.56
2023-01-12T01:23:37.064Z,100526.56
2023-01-12T01:26:41.010Z,100529.56
2023-01-12T01:29:46.910Z,100540.84
2023-01-12T01:32:52.724Z,100552.59
2023-01-12T01:35:57.489Z,100543.25
2023-01-12T01:39:00.720Z,100534.91
2023-01-12T01:42:03.782Z,100518.88
2023-01-12T01:45:10.734Z,100513.41
2023-01-12T01:48:17.625Z,100505.06
2023-01-12T01:51:25.417Z,100508.06
2023-01-12T01:54:32.188Z,100504.09
2023-01-12T01:57:43.775Z,100507.28
2023-01-12T02:00:47.823Z,100510.72
2023-01-12T02:03:54.764Z,100516.47
2023-01-12T02:06:58.805Z,100496.63
2023-01-12T02:10:02.733Z,100499.94
2023-01-12T02:13:23.604Z,100498.97
2023-01-12T02:16:31.916Z,100494.44
2023-01-12T02:20:18.155Z,100489.94
2023-01-12T02:24:08.411Z,100485.78
2023-01-12T02:27:35.034Z,100488.19
2023-01-12T02:31:18.077Z,100482.09
2023-01-12T02:34:38.564Z,100487.94
2023-01-12T02:37:49.706Z,100484.63
2023-01-12T02:41:04.501Z,100488.19
2023-01-12T02:44:11.655Z,100477.75
2023-01-12T02:47:26.324Z,100473.59
2023-01-12T02:50:37.606Z,100470.09
2023-01-12T02:53:46.014Z,100469.94
2023-01-12T02:56:52.280Z,100461.16
2023-01-12T02:59:56.737Z,100457.75
2023-01-12T03:03:02.969Z,100461.16
2023-01-12T03:06:10.016Z,100458.75
2023-01-12T03:09:15.729Z,100460.41
2023-01-12T03:12:26.795Z,100450.25
2023-01-12T03:15:30.405Z,100446.72
2023-01-12T03:18:39.617Z,100435.50
2023-01-12T03:21:49.343Z,100438.09
2023-01-12T03:24:58.669Z,100420.56
2023-01-12T03:28:06.025Z,100432.56
2023-01-12T03:31:13.040Z,100432.38
2023-01-12T03:34:17.604Z,100428.91
2023-01-12T03:37:28.965Z,100425.53
2023-01-12T03:40:38.835Z,100428.69
2023-01-12T03:43:48.403Z,100434.53
2023-01-12T03:46:57.475Z,100434.44
2023-01-12T03:50:07.572Z,100436.19
2023-01-12T03:53:13.357Z,100428.53
2023-01-12T03:56:19.224Z,100431.88
2023-01-12T03:59:23.064Z,100427.78
2023-01-12T04:02:26.649Z,100438.69
2023-01-12T04:05:30.924Z,100436.09
2023-01-12T04:08:35.942Z,100435.13
2023-01-12T04:11:56.286Z,100436.69
2023-01-12T04:14:59.913Z,100429.75
2023-01-12T04:18:02.958Z,100428.66
2023-01-12T04:21:27.349Z,100422.41
2023-01-12T04:24:29.369Z,100422.16
2023-01-12T04:27:32.400Z,100430.78
2023-01-12T04:30:35.745Z,100430.06
2023-01-12T04:33:38.712Z,100422.31
2023-01-12T04:36:44.060Z,100422.16
2023-01-12T04:39:47.069Z,100411.78
2023-01-12T04:43:08.237Z,100419.25
2023-01-12T04:46:11.883Z,100417.44
2023-01-12T04:49:18.215Z,100414.03
2023-01-12T04:52:24.697Z,100404.56
2023-01-12T04:55:27.773Z,100412.28
2023-01-12T04:58:34.922Z,100414.59
2023-01-12T05:01:39.325Z,100410.31
2023-01-12T05:04:42.782Z,100409.41
2023-01-12T05:08:01.077Z,100419.56
2023-01-12T05:11:05.532Z,100415.88
2023-01-12T05:14:08.867Z,100416.63
2023-01-12T05:17:12.086Z,100419.13
2023-01-12T05:20:15.444Z,100413.75
2023-01-12T05:23:20.130Z,100399.53
2023-01-12T05:26:24.813Z,100404.44
2023-01-12T05:29:30.025Z,100404.81
2023-01-12T05:32:39.360Z,100406.28
2023-01-12T05:35:42.673Z,100399.94
2023-01-12T05:38:47.352Z,100409.75
2023-01-12T05:42:07.776Z,100416.47
2023-01-12T05:45:12.556Z,100411.41
2023-01-12T05:48:15.793Z,100412.84
2023-01-12T05:51:19.544Z,100407.97
2023-01-12T05:54:24.414Z,100411.47
2023-01-12T05:57:27.649Z,100413.13
2023-01-12T06:00:31.326Z,100419.81
2023-01-12T06:03:34.499Z,100415.81
2023-01-12T06:06:40.883Z,100418.53
2023-01-12T06:09:46.723Z,100421.66
2023-01-12T06:13:09.429Z,100416.66
2023-01-12T06:16:13.732Z,100417.38
2023-01-12T06:19:16.829Z,100414.72
2023-01-12T06:22:20.588Z,100417.03
2023-01-12T06:25:25.427Z,100427.19
2023-01-12T06:28:28.576Z,100422.69
2023-01-12T06:31:31.863Z,100423.69
2023-01-12T06:34:35.795Z,100424.59
2023-01-12T06:37:38.794Z,100424.81
2023-01-12T06:40:43.464Z,100412.97
2023-01-12T06:43:51.701Z,100408.72
2023-01-12T06:46:56.954Z,100404.25
2023-01-12T06:50:00.185Z,100404.91
2023-01-12T06:53:05.986Z,100397.78
2023-01-12T06:56:10.438Z,100405.53
2023-01-12T06:59:15.908Z,100393.91
2023-01-12T07:02:18.930Z,100406.47
2023-01-12T07:05:25.037Z,100401.56
2023-01-12T07:08:28.658Z,100398.91
2023-01-12T07:11:33.442Z,100398.91
2023-01-12T07:14:36.615Z,100400.75
2023-01-12T07:17:43.285Z,100392.41
2023-01-12T07:20:48.728Z,100390.75
2023-01-12T07:23:51.729Z,100387.25
2023-01-12T07:26:58.160Z,100381.34
2023-01-12T07:30:01.213Z,100383.53
2023-01-12T07:33:10.103Z,100378.00
2023-01-12T07:36:13.371Z,100376.13
2023-01-12T07:39:18.646Z,100383.00
2023-01-12T07:42:28.655Z,100361.34
2023-01-12T07:45:38.764Z,100365.41
2023-01-12T07:48:43.805Z,100360.84
2023-01-12T07:51:46.982Z,100354.66
2023-01-12T07:54:50.395Z,100352.25
2023-01-12T07:57:59.813Z,100346.63
2023-01-12T08:01:06.401Z,100341.66
2023-01-12T08:04:09.821Z,100337.22
2023-01-12T08:07:17.567Z,100349.78
2023-01-12T08:10:20.862Z,100336.72
2023-01-12T08:13:25.683Z,100331.97
2023-01-12T08:16:34.189Z,100337.16
2023-01-12T08:19:41.622Z,100331.91
2023-01-12T08:22:51.682Z,100334.38
2023-01-12T08:25:59.261Z,100338.44
2023-01-12T08:29:11.576Z,100334.94
2023-01-12T08:32:18.755Z,100331.00
2023-01-12T08:35:24.622Z,100330.59
2023-01-12T08:38:27.555Z,100333.72
2023-01-12T08:41:33.200Z,100335.31
2023-01-12T08:44:37.790Z,100331.66
2023-01-12T08:47:44.316Z,100329.59
2023-01-12T08:50:47.463Z,100326.91
2023-01-12T08:53:53.021Z,100326.91
2023-01-12T08:56:55.990Z,100320.69
2023-01-12T09:00:00.351Z,100311.75
2023-01-12T09:03:03.336Z,100305.31
2023-01-12T09:06:18.376Z,100314.69
2023-01-12T09:09:22.478Z,100302.25
2023-01-12T09:12:28.982Z,100302.69
2023-01-12T09:15:34.696Z,100306.63
2023-01-12T09:18:38.750Z,100298.72
2023-01-12T09:21:42.886Z,100291.78
2023-01-12T09:24:46.335Z,100283.38
2023-01-12T09:27:49.379Z,100296.34
2023-01-12T09:30:56.772Z,100292.63
2023-01-12T09:34:01.907Z,100278.69
2023-01-12T09:37:04.910Z,100285.44
2023-01-12T09:40:11.332Z,100280.88
2023-01-12T09:43:34.494Z,100284.19
2023-01-12T09:46:57.777Z,100277.53
2023-01-12T09:50:10.123Z,100279.38
2023-01-12T09:53:19.469Z,100274.00
2023-01-12T09:56:30.308Z,100264.44
2023-01-12T09:59:45.173Z,100263.38
2023-01-12T10:02:53.925Z,100254.44
2023-01-12T10:06:00.521Z,100262.94
2023-01-12T10:09:06.157Z,100248.94
2023-01-12T10:12:24.026Z,100255.22
2023-01-12T10:15:45.699Z,100246.06
2023-01-12T10:18:55.730Z,100239.50
2023-01-12T10:21:58.992Z,100236.44
2023-01-12T10:25:03.632Z,100248.50
2023-01-12T10:28:09.628Z,100236.44
2023-01-12T10:31:21.291Z,100227.94
2023-01-12T10:34:25.767Z,100218.03
2023-01-12T10:37:29.313Z,100220.66
2023-01-12T10:40:34.964Z,100229.16
2023-01-12T10:43:39.491Z,100231.88
2023-01-12T10:46:42.771Z,100220.66
2023-01-12T10:49:47.087Z,100212.00
2023-01-12T10:52:55.326Z,100201.59
2023-01-12T10:55:59.410Z,100204.44
2023-01-12T10:59:06.384Z,100192.97
2023-01-12T11:02:17.039Z,100197.34
2023-01-12T11:05:36.745Z,100176.47
2023-01-12T11:08:40.014Z,100178.81
2023-01-12T11:11:43.147Z,100179.06
2023-01-12T11:15:01.386Z,100156.22
2023-01-12T11:18:25.688Z,100147.13
2023-01-12T11:21:35.675Z,100142.81
2023-01-12T11:24:44.899Z,100112.44
2023-01-12T11:27:53.176Z,100105.94
2023-01-12T11:30:59.828Z,100094.91
2023-01-12T11:34:10.540Z,100090.56
2023-01-12T11:37:18.719Z,100088.09
2023-01-12T11:40:30.831Z,100083.00
2023-01-12T11:43:52.460Z,100064.47
2023-01-12T11:47:05.860Z,100047.31
2023-01-12T11:50:17.467Z,100045.19
2023-01-12T11:53:25.085Z,100046.00
2023-01-12T11:57:01.423Z,100041.63
2023-01-12T12:00:23.252Z,100031.53
2023-01-12T12:03:50.684Z,100022.09
2023-01-12T12:07:09.772Z,100019.97
2023-01-12T12:10:23.769Z,100024.31
2023-01-12T12:13:40.364Z,100027.41
2023-01-12T12:16:58.931Z,100015.75
2023-01-12T12:20:19.229Z,100018.63
2023-01-12T12:23:32.901Z,100034.34
2023-01-12T12:26:43.725Z,100040.94
2023-01-12T12:30:15.098Z,100043.44
2023-01-12T12:33:31.466Z,100046.06
2023-01-12T12:36:43.669Z,100055.88
2023-01-12T12:39:57.317Z,100061.78
2023-01-12T12:43:32.150Z,100082.94
2023-01-12T12:46:48.144Z,100090.28
2023-01-12T12:49:55.432Z,100077.28
2023-01-12T12:53:21.413Z,100073.25
2023-01-12T12:56:26.444Z,100066.06
2023-01-12T13:00:00.524Z,100082.47
2023-01-12T13:03:13.571Z,100086.59
2023-01-12T13:06:24.216Z,100078.47
2023-01-12T13:09:53.499Z,100086.13
2023-01-12T13:13:02.434Z,100097.63
2023-01-12T13:16:47.034Z,100076.81
2023-01-12T13:19:59.769Z,100085.56
2023-01-12T13:23:05.129Z,100094.66
2023-01-12T13:26:45.777Z,100090.28
2023-01-12T13:29:52.837Z,100082.72
2023-01-12T13:33:03.476Z,100092.16
2023-01-12T13:36:12.223Z,100076.81
2023-01-12T13:39:18.247Z,100081.88
2023-01-12T13:42:43.725Z,100073.28
2023-01-12T13:45:53.764Z,100086.13
2023-01-12T13:48:58.720Z,100080.25
2023-01-12T13:52:12.014Z,100081.75
2023-01-12T13:55:24.831Z,100079.66
2023-01-12T13:58:29.655Z,100078.59
2023-01-12T14:01:37.232Z,100079.56
2023-01-12T14:05:08.725Z,100087.09
2023-01-12T14:08:50.695Z,100085.31
2023-01-12T14:12:20.185Z,100085.31
2023-01-12T14:15:51.501Z,100083.56
2023-01-12T14:18:54.707Z,100085.44
2023-01-12T14:22:03.372Z,100082.50
2023-01-12T14:25:20.475Z,100083.31
2023-01-12T14:28:25.700Z,100081.56
2023-01-12T14:31:37.717Z,100073.53
2023-01-12T14:34:46.802Z,100078.25
2023-01-12T14:37:56.840Z,100072.09
2023-01-12T14:41:06.780Z,100078.25
2023-01-12T14:44:37.320Z,100079.66
2023-01-12T14:47:41.313Z,100083.19
2023-01-12T14:51:03.315Z,100079.19
2023-01-12T14:54:24.898Z,100071.50
2023-01-12T14:57:34.645Z,100080.59
2023-01-12T15:00:43.796Z,100078.94
2023-01-12T15:03:48.995Z,100079.66
2023-01-12T15:07:02.849Z,100073.75
2023-01-12T15:10:31.079Z,100086.75
2023-01-12T15:13:36.467Z,100092.31
2023-01-12T15:17:01.728Z,100086.06
2023-01-12T15:20:39.357Z,100084.41
2023-01-12T15:24:00.098Z,100087.72
2023-01-12T15:27:06.614Z,100094.56
2023-01-12T15:30:12.764Z,100097.41
2023-01-12T15:33:16.742Z,100091.72
2023-01-12T15:36:19.915Z,100091.97
2023-01-12T15:39:23.144Z,100093.38
2023-01-12T15:42:27.610Z,100098.09
2023-01-12T15:45:35.497Z,100091.00
2023-01-12T15:48:41.870Z,100100.47
2023-01-12T15:51:50.039Z,100095.38
2023-01-12T15:54:57.533Z,100097.84
2023-01-12T15:58:07.929Z,100079.91
2023-01-12T16:01:18.725Z,100091.25
2023-01-12T16:04:43.135Z,100081.69
2023-01-12T16:07:48.581Z,100092.44
2023-01-12T16:11:11.527Z,100097.41
2023-01-12T16:14:18.092Z,100091.47
2023-01-12T16:17:22.207Z,100084.16
2023-01-12T16:20:26.981Z,100091.94
2023-01-12T16:23:34.148Z,100098.56
2023-01-12T16:26:37.640Z,100084.84
2023-01-12T16:29:42.621Z,100098.09
2023-01-12T16:32:54.244Z,100104.25
2023-01-12T16:36:03.866Z,100096.19
2023-01-12T16:39:13.131Z,100091.00
2023-01-12T16:42:24.842Z,100088.66
2023-01-12T16:45:30.642Z,100088.66
2023-01-12T16:48:39.440Z,100094.19
2023-01-12T16:51:46.213Z,100093.59
2023-01-12T16:54:53.727Z,100101.31
2023-01-12T16:57:58.249Z,100094.78
2023-01-12T17:01:16.458Z,100098.09
2023-01-12T17:04:54.896Z,100093.59
2023-01-12T17:08:07.038Z,100092.66
2023-01-12T17:11:16.447Z,100094.09
2023-01-12T17:14:33.418Z,100092.44
2023-01-12T17:17:45.536Z,100087.47
2023-01-12T17:21:10.902Z,100087.22
2023-01-12T17:24:16.857Z,100090.97
2023-01-12T17:27:26.284Z,100081.66
2023-01-12T17:30:45.523Z,100091.72
2023-01-12T17:34:01.285Z,100082.03
2023-01-12T17:37:08.318Z,100079.28
2023-01-12T17:40:18.495Z,100082.63
2023-01-12T17:43:24.894Z,100076.00
2023-01-12T17:46:32.034Z,100074.91
2023-01-12T17:49:42.930Z,100080.72
2023-01-12T17:52:58.321Z,100079.91
2023-01-12T17:56:07.936Z,100079.28
2023-01-12T17:59:22.961Z,100065.94
2023-01-12T18:02:26.531Z,100076.09
2023-01-12T18:05:31.750Z,100074.47
2023-01-12T18:08:35.671Z,100069.00
2023-01-12T18:11:54.750Z,100068.53
2023-01-12T18:15:00.229Z,100063.78
2023-01-12T18:18:06.959Z,100066.66
2023-01-12T18:21:17.553Z,100063.19
2023-01-12T18:24:23.939Z,100073.38
2023-01-12T18:27:29.532Z,100069.25
2023-01-12T18:30:33.027Z,100058.59
2023-01-12T18:33:39.972Z,100059.03
2023-01-12T18:36:44.599Z,100055.75
2023-01-12T18:39:53.900Z,100053.84
2023-01-12T18:42:57.807Z,100054.53
2023-01-12T18:46:08.843Z,100054.53
2023-01-12T18:49:14.827Z,100058.09
2023-01-12T18:52:39.589Z,100038.91
2023-01-12T18:55:45.762Z,100049.09
2023-01-12T18:58:50.615Z,100035.38
2023-01-12T19:01:56.663Z,100047.44
2023-01-12T19:05:19.988Z,100048.59
2023-01-12T19:08:42.356Z,100037.59
2023-01-12T19:11:45.536Z,100038.56
2023-01-12T19:15:06.293Z,100042.56
2023-01-12T19:18:13.447Z,100047.91
2023-01-12T19:21:34.610Z,100051.19
2023-01-12T19:24:56.902Z,100037.22
2023-01-12T19:28:18.558Z,100040.78
2023-01-12T19:31:21.637Z,100036.53
2023-01-12T19:34:25.702Z,100033.56
2023-01-12T19:37:28.764Z,100033.22
2023-01-12T19:40:45.318Z,100030.34
2023-01-12T19:43:54.931Z,100037.47
2023-01-12T19:46:58.588Z,100039.09
2023-01-12T19:50:14.016Z,100035.31
2023-01-12T19:53:23.361Z,100034.13
2023-01-12T19:56:35.406Z,100026.94
2023-01-12T19:59:50.734Z,100024.72
2023-01-12T20:02:57.395Z,100008.19
2023-01-12T20:06:09.126Z,100009.63
2023-01-12T20:09:16.023Z,100000.88
2023-01-12T20:12:21.885Z,99989.31
2023-01-12T20:15:25.593Z,99972.91
2023-01-12T20:18:28.798Z,99972.56
2023-01-12T20:21:31.958Z,99965.47
2023-01-12T20:24:38.042Z,99944.09
2023-01-12T20:27:42.637Z,99948.72
2023-01-12T20:30:49.135Z,99936.91
2023-01-12T20:39:01.660Z,99930.50
2023-01-12T20:42:51.576Z,99926.75
2023-01-12T20:46:30.468Z,99926.19
2023-01-12T20:49:35.063Z,99907.41
2023-01-12T20:52:47.919Z,99915.31
2023-01-12T20:56:16.557Z,99911.91
2023-01-12T20:59:20.042Z,99900.09
2023-01-12T21:02:27.487Z,99897.00
2023-01-12T21:05:35.412Z,99892.19
2023-01-12T21:08:50.221Z,99882.00
2023-01-12T21:11:53.738Z,99887.09
2023-01-12T21:14:56.857Z,99886.38
2023-01-12T21:18:04.928Z,99885.31
2023-01-12T21:21:08.743Z,99882.00
2023-01-12T21:24:12.209Z,99879.41
2023-01-12T21:27:17.686Z,99869.16
2023-01-12T21:30:21.080Z,99861.59
2023-01-12T21:33:26.727Z,99866.06
2023-01-12T21:36:29.841Z,99865.13
2023-01-12T21:39:32.857Z,99859.50
2023-01-12T21:42:54.990Z,99857.00
2023-01-12T21:46:05.083Z,99858.41
2023-01-12T21:49:09.557Z,99862.09
2023-01-12T21:52:15.044Z,99858.53
2023-01-12T21:55:20.675Z,99842.22
2023-01-12T21:58:24.604Z,99844.47
2023-01-12T22:01:29.867Z,99839.41
2023-01-12T22:04:36.695Z,99843.53
2023-01-12T22:07:39.945Z,99837.63
2023-01-12T22:10:46.574Z,99836.13
2023-01-12T22:13:54.878Z,99832.66
2023-01-12T22:16:58.195Z,99819.81
2023-01-12T22:20:02.666Z,99820.28
2023-01-12T22:23:05.765Z,99821.38
2023-01-12T22:26:18.891Z,99816.88
2023-01-12T22:29:24.326Z,99808.25
2023-01-12T22:32:27.623Z,99807.53
2023-01-12T22:35:32.424Z,99821.09
2023-01-12T22:38:35.903Z,99798.91
2023-01-12T22:41:40.536Z,99803.06
2023-01-12T22:44:43.562Z,99805.53
2023-01-12T22:47:54.895Z,99806.59
2023-01-12T22:51:01.652Z,99801.16
2023-01-12T22:54:07.759Z,99794.31
2023-01-12T22:57:15.435Z,99796.09
2023-01-12T23:00:21.619Z,99790.75
2023-01-12T23:03:26.910Z,99790.06
2023-01-12T23:06:31.380Z,99780.38
2023-01-12T23:09:35.135Z,99792.31
2023-01-12T23:12:38.491Z,99780.16
2023-01-12T23:15:43.848Z,99778.50
2023-01-12T23:18:49.988Z,99776.72
2023-01-12T23:22:00.625Z,99776.72
2023-01-12T23:25:04.173Z,99777.56
2023-01-12T23:28:08.751Z,99775.50
2023-01-12T23:31:17.004Z,99761.00
2023-01-12T23:34:20.300Z,99770.56
2023-01-12T23:37:27.206Z,99757.72
2023-01-12T23:40:31.759Z,99755.00
2023-01-12T23:43:37.555Z,99763.59
2023-01-12T23:46:43.207Z,99757.72
2023-01-12T23:49:51.221Z,99749.78
2023-01-12T23:53:03.159Z,99744.94
2023-01-12T23:56:08.549Z,99762.16
2023-01-12T23:59:17.188Z,99743.03
